Accueil
METAR-TAF:

METAR-TAF

Aéroports :

Aéroport de Saint-Louis

Saint-Louis, Sénégal

latitude: 16-03N, longitude: 016-27W, altitude: 4 m

Observation

Le bulletin a été fait il y a 1 heure et 19 minutes, à 05:00 UTC
Vent 4 kt de est/nord-est, variant entre nord et est
Température 24°C
Humidité 31%
Pression 1013 hPa
Visibilité 10 km ou plus
pas de nuages en-dessous de 1500 mètres et pas de cumulonimbus.

METAR: GOSS 240500Z 06004KT 360V100 CAVOK 24/06 Q1013

Heure: 06:19 (06:19 UTC)

Prévision

Le bulletin a été fait il y a 7 heures et 19 minutes, à 23:00 UTC
Prévision valable du 24 à 00 UTC au 24 à 24 UTC
Vent 8 kt de nord-est
Visibilité: 8000 m

TAF: GOSS 232300Z 2400/2424 04008KT 8000 NSC

Observations et prévisions météorologiques de plus de 4000 aéroports (messages METAR et TAF).

Les stations disponibles sont représentées par des disques jaunes et rouges sur la carte.

Passer la souris dessus pour voir le nom de la station.

Cliquer dessus pour voir les observations et prévisions météorologiques.

Pour changer de carte: cliquez sur les boutons verts avec une croix noire pour zoomer, sur le bouton vert avec un tiret pour effectuer un zoom arrière, ou sur les flèches vertes pour les cartes adjacentes.


METAR-TAF: